Time;durP1;ratioP1;P1;durP2;ratioP2;P2;SDS_P1;SDS_P2;PMS_P1;PMS_P2;Temp;Humidity;BMP_temperature;BMP_pressure;BME280_temperature;BME280_humidity;BME280_pressure;Samples;Min_cycle;Max_cycle;Signal;HPM_P1;HPM_P2
2022/04/17 00:02:05;;;;;;;3.25;1.10;;;256.00;2252.80;;;;;;5032470;28;20091;-55
2022/04/17 00:04:31;;;;;;;2.95;1.38;;;256.00;2252.80;;;;;;5032094;28;20037;-55
2022/04/17 00:06:57;;;;;;;3.10;1.75;;;231.30;2252.80;;;;;;5031957;28;20026;-56
2022/04/17 00:09:23;;;;;;;2.60;1.38;;;256.00;2252.80;;;;;;5032403;28;20435;-56
2022/04/17 00:11:49;;;;;;;2.50;1.15;;;256.00;2252.80;;;;;;5032107;28;20029;-55
2022/04/17 00:14:15;;;;;;;5.00;1.40;;;231.30;2252.80;;;;;;5031810;28;20075;-56
2022/04/17 00:16:40;;;;;;;1.27;0.88;;;256.00;2252.80;;;;;;5031987;28;20482;-55
2022/04/17 00:19:07;;;;;;;2.28;1.27;;;231.30;2252.80;;;;;;5031846;28;20527;-56
2022/04/17 00:21:33;;;;;;;7.30;2.00;;;256.00;2252.80;;;;;;5031960;28;20033;-55
2022/04/17 00:24:00;;;;;;;4.43;2.13;;;256.00;2252.80;;;;;;5031910;28;20030;-55
2022/04/17 00:26:25;;;;;;;1.48;1.17;;;256.00;2252.80;;;;;;5031648;28;20024;-56
2022/04/17 00:28:51;;;;;;;3.33;2.13;;;231.20;2252.80;;;;;;5032168;28;20029;-56
2022/04/17 00:31:17;;;;;;;2.65;1.13;;;230.90;2252.80;;;;;;5031462;28;20586;-56
2022/04/17 00:33:43;;;;;;;1.38;1.15;;;231.10;2252.80;;;;;;5030701;28;20037;-55
2022/04/17 00:36:08;;;;;;;2.45;1.65;;;231.10;2252.80;;;;;;5031542;28;20041;-55
2022/04/17 00:38:35;;;;;;;2.58;1.77;;;231.10;2252.80;;;;;;5031880;28;20488;-55
2022/04/17 00:41:00;;;;;;;1.90;1.23;;;231.20;2252.80;;;;;;5031632;28;20025;-55
2022/04/17 00:43:32;;;;;;;1.65;1.25;;;231.10;2252.80;;;;;;5031402;28;20032;-56
2022/04/17 00:45:58;;;;;;;1.60;1.17;;;231.00;2252.80;;;;;;5031351;28;20045;-56
2022/04/17 00:48:25;;;;;;;2.05;1.27;;;231.00;2252.80;;;;;;5031670;28;20021;-54
2022/04/17 00:50:53;;;;;;;3.10;1.95;;;230.90;2252.80;;;;;;5031522;28;20021;-55
2022/04/17 00:53:23;;;;;;;3.17;1.33;;;230.90;2252.80;;;;;;5031429;28;20095;-55
2022/04/17 00:55:50;;;;;;;4.53;1.80;;;230.90;2252.80;;;;;;5031391;28;20037;-56
2022/04/17 00:58:16;;;;;;;3.35;1.40;;;230.90;2252.80;;;;;;5031314;28;20453;-56
2022/04/17 01:00:43;;;;;;;2.75;1.23;;;230.70;2252.80;;;;;;5031238;28;20510;-56
2022/04/17 01:03:12;;;;;;;1.40;1.00;;;230.70;2252.80;;;;;;5031005;28;20431;-55
2022/04/17 01:05:42;;;;;;;3.40;1.25;;;230.70;2252.80;;;;;;5031099;28;20488;-56
2022/04/17 01:08:09;;;;;;;2.50;1.00;;;230.80;2252.80;;;;;;5031031;28;20036;-56
2022/04/17 01:10:35;;;;;;;1.77;1.13;;;230.70;2252.80;;;;;;5031373;28;20479;-55
2022/04/17 01:13:03;;;;;;;3.38;1.73;;;230.70;2252.80;;;;;;5031166;28;20029;-55
2022/04/17 01:15:29;;;;;;;0.95;0.80;;;230.80;2252.80;;;;;;5030736;28;20476;-56
2022/04/17 01:17:55;;;;;;;3.67;1.30;;;230.70;2252.80;;;;;;5030858;28;20064;-56
2022/04/17 01:20:24;;;;;;;0.82;0.77;;;230.50;2252.80;;;;;;5030881;28;20025;-55
2022/04/17 01:22:51;;;;;;;2.25;1.23;;;230.60;2252.80;;;;;;5030736;28;20036;-56
2022/04/17 01:28:05;;;;;;;2.00;1.13;;;230.50;2252.80;;;;;;5031159;28;20037;-56
2022/04/17 01:30:30;;;;;;;2.97;1.38;;;205.60;2252.80;;;;;;5030632;28;20456;-56
2022/04/17 01:32:56;;;;;;;2.63;1.23;;;230.40;2252.80;;;;;;5030396;28;20064;-56
2022/04/17 01:35:22;;;;;;;2.92;1.45;;;230.50;2252.80;;;;;;5030540;28;20057;-55
2022/04/17 01:37:49;;;;;;;0.95;0.70;;;230.40;2252.80;;;;;;5030392;28;20037;-55
2022/04/17 01:40:15;;;;;;;2.08;0.90;;;230.50;2252.80;;;;;;5030486;28;20543;-57
2022/04/17 01:42:41;;;;;;;4.18;1.15;;;230.40;2252.80;;;;;;5030636;28;20117;-55
2022/04/17 01:45:08;;;;;;;2.22;1.30;;;230.40;2252.80;;;;;;5030063;28;20083;-55
2022/04/17 01:47:34;;;;;;;2.15;1.27;;;205.60;2252.80;;;;;;5030531;28;20537;-55
2022/04/17 01:50:00;;;;;;;1.63;1.05;;;205.60;2252.80;;;;;;5030421;28;20083;-55
2022/04/17 01:52:26;;;;;;;1.15;0.88;;;205.60;2252.80;;;;;;5030360;28;20057;-56
2022/04/17 01:54:52;;;;;;;2.72;1.42;;;205.70;2252.80;;;;;;5030317;28;20491;-53
2022/04/17 01:57:18;;;;;;;2.20;1.17;;;205.70;2252.80;;;;;;5030274;28;20028;-53
2022/04/17 01:59:43;;;;;;;2.85;1.77;;;205.70;2252.80;;;;;;5030484;28;20368;-56
2022/04/17 02:02:09;;;;;;;2.13;0.90;;;205.70;2252.80;;;;;;5029957;28;20116;-55
2022/04/17 02:04:36;;;;;;;1.52;1.05;;;205.70;2252.80;;;;;;5029940;28;20189;-56
2022/04/17 02:07:05;;;;;;;3.65;1.60;;;205.70;2252.80;;;;;;5030166;28;20080;-55
2022/04/17 02:09:31;;;;;;;1.15;0.93;;;205.70;2252.80;;;;;;5030141;28;20535;-56
2022/04/17 02:11:57;;;;;;;1.80;1.02;;;205.70;2252.80;;;;;;5030127;28;20113;-56
2022/04/17 02:14:23;;;;;;;3.03;1.55;;;205.40;2201.60;;;;;;5030007;28;20040;-55
2022/04/17 02:16:49;;;;;;;2.05;1.05;;;205.50;2201.60;;;;;;5029916;28;20030;-56
2022/04/17 02:19:14;;;;;;;1.63;1.10;;;205.60;2227.20;;;;;;5030221;28;20046;-56
2022/04/17 02:21:40;;;;;;;2.33;1.42;;;205.60;2201.60;;;;;;5030140;28;20029;-56
2022/04/17 02:24:06;;;;;;;1.15;0.77;;;205.50;2227.20;;;;;;5030071;28;20388;-55
2022/04/17 02:26:33;;;;;;;1.15;0.75;;;205.70;2227.20;;;;;;5030021;28;20029;-56
2022/04/17 02:28:59;;;;;;;1.13;1.02;;;205.50;2176.00;;;;;;5029940;28;20032;-55
2022/04/17 02:31:26;;;;;;;1.92;1.45;;;205.50;2176.00;;;;;;5029887;28;20152;-56
2022/04/17 02:33:52;;;;;;;3.63;1.42;;;205.40;2176.00;;;;;;5029474;28;20053;-56
2022/04/17 02:36:19;;;;;;;1.90;1.30;;;205.50;2176.00;;;;;;5029939;28;20261;-56
2022/04/17 02:38:45;;;;;;;3.05;1.63;;;205.40;2201.60;;;;;;5030050;28;20021;-56
2022/04/17 02:41:11;;;;;;;3.20;1.40;;;205.40;2201.60;;;;;;5030269;28;20384;-55
2022/04/17 02:43:37;;;;;;;0.75;0.65;;;205.30;2176.00;;;;;;5029826;28;20435;-56
2022/04/17 02:46:03;;;;;;;2.47;1.25;;;205.40;2176.00;;;;;;5029708;28;20109;-55
2022/04/17 02:48:28;;;;;;;1.45;1.02;;;205.30;2176.00;;;;;;5029690;28;20061;-55
2022/04/17 02:50:55;;;;;;;1.77;0.95;;;205.20;2176.00;;;;;;5030200;28;20034;-56
2022/04/17 02:53:21;;;;;;;2.40;1.42;;;205.20;2201.60;;;;;;5030024;28;20034;-55
2022/04/17 02:55:47;;;;;;;1.23;0.70;;;205.20;2176.00;;;;;;5029830;28;20480;-56
2022/04/17 02:58:14;;;;;;;2.25;1.23;;;205.10;2176.00;;;;;;5033115;28;20030;-55
2022/04/17 03:06:10;;;;;;;3.10;1.52;;;205.10;2099.20;;;;;;5033516;28;20125;-56
2022/04/17 03:08:39;;;;;;;1.83;1.23;;;205.00;2124.80;;;;;;5033281;28;20037;-56
2022/04/17 03:11:05;;;;;;;1.15;0.70;;;205.10;2124.80;;;;;;5033359;28;20071;-54
2022/04/17 03:13:31;;;;;;;2.78;1.05;;;205.00;2124.80;;;;;;5033237;28;20046;-56
2022/04/17 03:15:56;;;;;;;0.95;0.60;;;205.10;2099.20;;;;;;5032929;28;20041;-56
2022/04/17 03:18:23;;;;;;;1.90;1.40;;;205.10;2099.20;;;;;;5033352;28;20029;-56
2022/04/17 03:20:48;;;;;;;1.40;1.17;;;205.00;2073.60;;;;;;5033213;28;20038;-56
2022/04/17 03:23:14;;;;;;;0.93;0.68;;;205.00;2099.20;;;;;;5033358;28;20546;-55
2022/04/17 03:25:40;;;;;;;2.70;0.95;;;205.10;2073.60;;;;;;5033042;28;20060;-53
2022/04/17 03:28:06;;;;;;;1.63;1.30;;;205.00;2048.00;;;;;;5032997;28;20071;-56
2022/04/17 03:30:32;;;;;;;1.35;0.63;;;205.00;2022.40;;;;;;5032920;28;20029;-56
2022/04/17 03:32:59;;;;;;;1.35;0.60;;;204.90;2022.40;;;;;;5032537;28;20036;-56
2022/04/17 03:35:25;;;;;;;0.50;0.43;;;204.80;2022.40;;;;;;5032545;28;20098;-57
2022/04/17 03:37:53;;;;;;;2.85;0.63;;;204.90;2048.00;;;;;;5032981;28;20167;-56
2022/04/17 03:40:19;;;;;;;1.52;0.90;;;204.80;2022.40;;;;;;5032676;28;20042;-55
2022/04/17 03:42:45;;;;;;;2.38;0.98;;;204.80;2022.40;;;;;;5032748;28;20021;-57
2022/04/17 03:45:14;;;;;;;1.48;0.90;;;204.80;2022.40;;;;;;5032819;28;20025;-56
2022/04/17 03:47:40;;;;;;;1.55;1.13;;;204.80;2022.40;;;;;;5032632;28;20103;-56
2022/04/17 03:50:07;;;;;;;0.60;0.60;;;180.00;2022.40;;;;;;5032794;28;20094;-56
2022/04/17 03:52:39;;;;;;;2.35;1.15;;;180.10;2022.40;;;;;;5032670;28;20057;-56
2022/04/17 03:55:06;;;;;;;0.93;0.80;;;180.10;2022.40;;;;;;5032673;28;20441;-56
2022/04/17 03:57:32;;;;;;;3.10;1.25;;;180.10;2048.00;;;;;;5032662;28;20021;-55
2022/04/17 03:59:58;;;;;;;2.17;1.35;;;180.10;2048.00;;;;;;5032296;28;20017;-55
2022/04/17 04:02:24;;;;;;;1.77;0.80;;;180.10;2048.00;;;;;;5032286;28;20384;-55
2022/04/17 04:04:51;;;;;;;1.25;0.85;;;180.10;2022.40;;;;;;5032515;28;20139;-57
2022/04/17 04:07:16;;;;;;;1.98;0.73;;;180.10;2048.00;;;;;;5032324;28;20026;-56
2022/04/17 04:09:42;;;;;;;1.60;1.08;;;180.10;2048.00;;;;;;5032510;28;20022;-55
2022/04/17 04:12:08;;;;;;;1.48;0.88;;;204.80;2022.40;;;;;;5032108;28;20025;-56
2022/04/17 04:14:33;;;;;;;2.08;1.40;;;204.80;2022.40;;;;;;5032217;28;20041;-55
2022/04/17 04:17:00;;;;;;;2.10;0.95;;;204.90;2022.40;;;;;;5031848;28;20050;-56
2022/04/17 04:19:25;;;;;;;2.17;0.93;;;204.90;2022.40;;;;;;5032057;28;20074;-56
2022/04/17 04:21:51;;;;;;;2.08;1.20;;;204.80;2022.40;;;;;;5032080;28;20025;-56
2022/04/17 04:24:19;;;;;;;1.50;1.15;;;204.80;2048.00;;;;;;5032031;28;20055;-56
2022/04/17 04:28:32;;;;;;;2.67;1.42;;;204.90;2022.40;;;;;;5032096;28;20105;-55
2022/04/17 04:29:32;;;;;;;0.68;0.68;;;204.90;2022.40;;;;;;5031956;28;20037;-56
2022/04/17 04:31:58;;;;;;;2.25;1.33;;;204.80;2048.00;;;;;;5031714;28;20034;-56
2022/04/17 04:34:24;;;;;;;2.40;0.90;;;204.90;2048.00;;;;;;5031484;28;20088;-55
2022/04/17 04:36:49;;;;;;;0.63;0.57;;;205.00;1996.80;;;;;;5031579;28;20120;-55
2022/04/17 04:39:15;;;;;;;3.03;1.23;;;205.00;1996.80;;;;;;5031748;28;20025;-55
2022/04/17 04:41:41;;;;;;;1.35;1.00;;;205.00;2022.40;;;;;;5030525;28;20031;-55
2022/04/17 04:44:06;;;;;;;3.08;1.20;;;205.00;2022.40;;;;;;5031501;28;20095;-56
2022/04/17 04:46:32;;;;;;;1.55;1.20;;;204.90;2048.00;;;;;;5031485;28;20432;-55
2022/04/17 04:51:42;;;;;;;1.65;1.10;;;205.00;2022.40;;;;;;5031901;28;20067;-55
2022/04/17 04:54:07;;;;;;;1.67;0.80;;;205.00;1996.80;;;;;;5031264;28;20065;-55
2022/04/17 04:56:34;;;;;;;3.03;1.85;;;205.10;2022.40;;;;;;5031048;28;20018;-55
2022/04/17 04:59:00;;;;;;;2.67;1.73;;;205.30;1996.80;;;;;;5031122;28;20036;-54
2022/04/17 05:01:26;;;;;;;1.35;0.68;;;205.30;1996.80;;;;;;5030944;28;20026;-57
2022/04/17 05:03:51;;;;;;;2.20;0.98;;;205.40;2022.40;;;;;;5031150;28;20051;-56
2022/04/17 05:06:18;;;;;;;1.80;0.90;;;205.50;1996.80;;;;;;5031017;28;20026;-56
2022/04/17 05:08:43;;;;;;;4.45;1.23;;;205.60;1996.80;;;;;;5031071;28;20545;-54
2022/04/17 05:11:09;;;;;;;1.15;0.98;;;205.60;1996.80;;;;;;5030845;28;20072;-56
2022/04/17 05:13:35;;;;;;;1.20;0.82;;;230.40;1996.80;;;;;;5031124;28;20573;-55
2022/04/17 05:16:02;;;;;;;3.75;0.95;;;205.70;1971.20;;;;;;5031076;28;20521;-55
2022/04/17 05:18:28;;;;;;;2.13;0.90;;;205.70;1971.20;;;;;;5030657;28;20487;-55
2022/04/17 05:20:55;;;;;;;2.65;1.30;;;230.60;1945.60;;;;;;5030489;28;20022;-54
2022/04/17 05:23:30;;;;;;;1.52;1.00;;;230.70;1945.60;;;;;;5031144;28;20388;-56
2022/04/17 05:26:01;;;;;;;1.70;1.17;;;230.90;1920.00;;;;;;5030597;28;20391;-56
2022/04/17 05:28:30;;;;;;;1.27;0.90;;;230.80;1920.00;;;;;;5030856;28;20140;-55
2022/04/17 05:30:57;;;;;;;2.15;1.25;;;230.60;1971.20;;;;;;5030855;28;20383;-56
2022/04/17 05:33:23;;;;;;;2.42;1.40;;;230.50;1996.80;;;;;;5030699;28;20419;-55
2022/04/17 05:35:51;;;;;;;1.05;0.93;;;230.50;1996.80;;;;;;5029730;28;20144;-55
2022/04/17 05:38:17;;;;;;;1.75;1.20;;;230.60;1945.60;;;;;;5029817;28;20591;-56
2022/04/17 05:40:46;;;;;;;1.70;1.10;;;230.70;1945.60;;;;;;5029792;28;20033;-55
2022/04/17 05:43:12;;;;;;;2.55;1.52;;;231.10;1920.00;;;;;;5030086;28;20033;-55
2022/04/17 05:45:39;;;;;;;2.60;1.13;;;256.60;1868.80;;;;;;5029536;28;20399;-55
2022/04/17 05:48:06;;;;;;;2.28;1.38;;;281.80;1792.00;;;;;;5029618;28;20030;-55
2022/04/17 05:50:32;;;;;;;4.32;1.77;;;333.20;1664.00;;;;;;5029791;28;20105;-56
2022/04/17 05:52:58;;;;;;;1.45;1.27;;;384.00;1536.00;;;;;;5029455;28;20543;-55
2022/04/17 05:55:25;;;;;;;2.38;1.63;;;410.30;1382.40;;;;;;5029698;28;20072;-56
2022/04/17 05:57:50;;;;;;;6.03;3.25;;;436.10;1331.20;;;;;;5029623;28;20422;-55
2022/04/17 06:00:17;;;;;;;6.38;3.72;;;461.50;1254.40;;;;;;5029611;28;20029;-56
2022/04/17 06:02:46;;;;;;;2.28;1.75;;;461.30;1280.00;;;;;;5029569;28;20033;-56
2022/04/17 06:05:13;;;;;;;2.22;1.45;;;460.90;1254.40;;;;;;5029685;28;20491;-56
2022/04/17 06:07:40;;;;;;;2.17;1.80;;;435.40;1280.00;;;;;;5029190;28;20091;-57
2022/04/17 06:10:08;;;;;;;3.92;2.50;;;435.90;1280.00;;;;;;5028795;28;20021;-56
2022/04/17 06:12:34;;;;;;;4.47;2.55;;;435.50;1254.40;;;;;;5029375;28;20445;-56
2022/04/17 06:15:00;;;;;;;5.03;2.25;;;435.80;1228.80;;;;;;5029255;28;20045;-55
2022/04/17 06:17:26;;;;;;;2.80;1.75;;;435.30;1280.00;;;;;;5029320;28;20388;-57
2022/04/17 06:19:52;;;;;;;2.33;1.13;;;384.90;1305.60;;;;;;5029453;28;20038;-56
2022/04/17 06:22:18;;;;;;;4.32;2.20;;;359.00;1408.00;;;;;;5029175;28;20429;-57
2022/04/17 06:24:46;;;;;;;3.15;1.98;;;358.60;1459.20;;;;;;5029440;28;20033;-57
2022/04/17 06:27:12;;;;;;;3.97;2.20;;;333.40;1510.40;;;;;;5029530;28;20490;-55
2022/04/17 06:29:38;;;;;;;2.63;1.40;;;333.20;1536.00;;;;;;5028982;28;20116;-55
2022/04/17 06:32:04;;;;;;;2.20;1.58;;;307.80;1561.60;;;;;;5030444;28;20031;-55
2022/04/17 06:34:30;;;;;;;2.38;1.27;;;307.60;1587.20;;;;;;4991331;28;1184910;-55
2022/04/17 06:36:56;;;;;;;2.97;1.83;;;307.30;1612.80;;;;;;5033972;28;20034;-56
2022/04/17 06:39:21;;;;;;;4.47;2.50;;;282.40;1612.80;;;;;;5033906;28;20410;-56
2022/04/17 06:41:49;;;;;;;3.65;2.08;;;282.50;1587.20;;;;;;5033781;28;20476;-56
2022/04/17 06:44:15;;;;;;;2.40;1.48;;;282.40;1612.80;;;;;;5033865;28;20056;-56
2022/04/17 06:46:41;;;;;;;2.70;1.50;;;282.00;1638.40;;;;;;5033714;28;20091;-54
2022/04/17 06:49:07;;;;;;;2.38;1.42;;;282.20;1612.80;;;;;;5033514;28;20107;-55
2022/04/17 06:51:33;;;;;;;2.50;1.80;;;282.20;1612.80;;;;;;5033600;28;20022;-55
2022/04/17 06:53:59;;;;;;;2.53;1.60;;;307.20;1612.80;;;;;;5033558;28;20522;-55
2022/04/17 06:56:24;;;;;;;4.13;2.17;;;282.30;1587.20;;;;;;5033755;28;20026;-55
2022/04/17 06:58:50;;;;;;;4.15;2.85;;;307.70;1587.20;;;;;;5033968;28;20053;-56
2022/04/17 07:01:17;;;;;;;7.07;4.57;;;332.90;1561.60;;;;;;5033869;28;20068;-56
2022/04/17 07:03:44;;;;;;;4.00;2.30;;;333.60;1536.00;;;;;;5033394;28;20065;-56
2022/04/17 07:06:09;;;;;;;5.45;3.33;;;333.40;1510.40;;;;;;5033379;28;20530;-55
2022/04/17 07:08:35;;;;;;;8.23;4.22;;;333.60;1510.40;;;;;;5033265;28;20025;-57
2022/04/17 07:11:01;;;;;;;30.02;12.02;;;358.40;1484.80;;;;;;5033324;28;20029;-60
2022/04/17 07:13:27;;;;;;;5.45;2.13;;;358.80;1459.20;;;;;;5031914;28;20038;-61
2022/04/17 07:15:53;;;;;;;56.72;24.55;;;359.30;1433.60;;;;;;5033506;28;20476;-59
2022/04/17 07:18:19;;;;;;;8.77;4.35;;;384.10;1408.00;;;;;;5033058;28;20091;-61
2022/04/17 07:20:45;;;;;;;3.65;2.45;;;384.70;1356.80;;;;;;5033186;28;20034;-60
2022/04/17 07:23:10;;;;;;;20.52;10.60;;;410.30;1331.20;;;;;;5033386;28;20075;-61
2022/04/17 07:25:36;;;;;;;9.18;5.15;;;435.60;1305.60;;;;;;5032984;28;20029;-59
2022/04/17 07:28:03;;;;;;;8.93;5.15;;;460.80;1254.40;;;;;;5033143;28;20022;-61
2022/04/17 07:30:32;;;;;;;6.55;3.85;;;461.10;1254.40;;;;;;5033055;28;20069;-60
2022/04/17 07:33:01;;;;;;;3.33;2.35;;;461.50;1203.20;;;;;;5032548;28;20041;-60
2022/04/17 07:35:28;;;;;;;2.78;2.00;;;486.70;1177.60;;;;;;5032249;28;20056;-59
2022/04/17 07:37:58;;;;;;;2.63;2.08;;;512.10;1126.40;;;;;;5031881;28;20100;-60
2022/04/17 07:40:26;;;;;;;3.30;2.60;;;486.90;1152.00;;;;;;5028766;28;20029;-59
2022/04/17 07:42:54;;;;;;;2.97;1.80;;;487.10;1152.00;;;;;;5031145;28;20022;-60
2022/04/17 07:45:21;;;;;;;4.60;3.55;;;487.30;1126.40;;;;;;5031353;28;20107;-60
2022/04/17 07:47:48;;;;;;;4.57;3.08;;;512.00;1100.80;;;;;;5032292;28;20112;-62
2022/04/17 07:50:16;;;;;;;5.25;2.88;;;537.70;1075.20;;;;;;5032771;28;20423;-60
2022/04/17 07:52:42;;;;;;;3.03;2.05;;;538.40;1049.60;;;;;;5031947;28;20033;-59
2022/04/17 07:55:13;;;;;;;6.20;2.65;;;537.60;1100.80;;;;;;5031884;28;20046;-59
2022/04/17 07:58:08;;;;;;;3.50;2.38;;;512.60;1100.80;;;;;;5029695;28;20043;-62
2022/04/17 08:00:45;;;;;;;4.55;2.40;;;487.10;1152.00;;;;;;5031714;28;20438;-56
2022/04/17 08:03:21;;;;;;;4.60;2.00;;;487.10;1126.40;;;;;;5031676;28;20033;-61
2022/04/17 08:05:48;;;;;;;3.15;1.95;;;486.40;1177.60;;;;;;5032043;28;20025;-59
2022/04/17 08:08:14;;;;;;;2.55;1.80;;;486.40;1152.00;;;;;;5032513;28;20476;-60
2022/04/17 08:10:41;;;;;;;2.70;1.65;;;486.40;1177.60;;;;;;5032421;28;20065;-62
2022/04/17 08:13:07;;;;;;;4.05;2.53;;;486.50;1177.60;;;;;;5032049;28;20039;-61
2022/04/17 08:15:33;;;;;;;3.45;2.13;;;460.80;1228.80;;;;;;5032256;28;20033;-61
2022/04/17 08:17:59;;;;;;;5.32;2.03;;;461.50;1177.60;;;;;;5030843;28;20392;-59
2022/04/17 08:20:25;;;;;;;3.15;2.28;;;486.50;1177.60;;;;;;5032133;28;20025;-61
2022/04/17 08:22:51;;;;;;;2.70;2.05;;;486.80;1152.00;;;;;;5031994;28;20492;-59
2022/04/17 08:25:16;;;;;;;3.40;2.58;;;486.80;1152.00;;;;;;5032114;28;20066;-61
2022/04/17 08:27:50;;;;;;;4.57;2.58;;;512.90;1100.80;;;;;;5032118;28;20081;-57
2022/04/17 08:30:23;;;;;;;2.72;1.75;;;512.60;1100.80;;;;;;5031830;28;20029;-59
2022/04/17 08:32:50;;;;;;;4.53;2.75;;;487.10;1126.40;;;;;;5031346;28;20064;-58
2022/04/17 08:35:16;;;;;;;3.30;2.38;;;486.90;1152.00;;;;;;5031447;28;20085;-60
2022/04/17 08:37:45;;;;;;;4.55;3.00;;;487.30;1152.00;;;;;;5032137;28;20025;-58
2022/04/17 08:40:11;;;;;;;3.58;2.25;;;487.00;1152.00;;;;;;5031675;28;20083;-56
2022/04/17 08:42:39;;;;;;;3.28;2.35;;;461.70;1152.00;;;;;;5031476;28;20084;-57
2022/04/17 08:45:07;;;;;;;3.70;2.10;;;486.40;1177.60;;;;;;5031491;28;20516;-55
2022/04/17 08:47:34;;;;;;;2.88;1.98;;;435.40;1228.80;;;;;;5031454;28;20353;-58
2022/04/17 08:50:00;;;;;;;4.15;2.10;;;410.20;1280.00;;;;;;5031345;28;20024;-56
2022/04/17 08:52:30;;;;;;;3.80;2.55;;;410.30;1280.00;;;;;;5031465;28;20026;-56
2022/04/17 08:54:57;;;;;;;3.63;2.55;;;435.20;1280.00;;;;;;5030415;28;20033;-59
2022/04/17 08:57:22;;;;;;;3.53;1.83;;;435.30;1280.00;;;;;;5031538;28;20033;-57
2022/04/17 08:59:48;;;;;;;3.17;2.45;;;410.00;1280.00;;;;;;5030789;28;20040;-55
2022/04/17 09:02:16;;;;;;;2.60;1.60;;;410.00;1305.60;;;;;;5031202;28;20104;-57
2022/04/17 09:04:42;;;;;;;3.60;2.00;;;384.80;1305.60;;;;;;5031329;28;20426;-58
2022/04/17 09:07:10;;;;;;;2.72;1.77;;;384.70;1305.60;;;;;;5031146;28;20030;-56
2022/04/17 09:09:52;;;;;;;6.13;2.88;;;384.40;1305.60;;;;;;5031018;28;20022;-60
2022/04/17 09:12:25;;;;;;;20.25;9.23;;;359.20;1356.80;;;;;;5030867;28;20025;-56
2022/04/17 09:14:55;;;;;;;3.70;2.47;;;384.10;1331.20;;;;;;5031007;28;20499;-57
2022/04/17 09:17:34;;;;;;;5.20;3.13;;;384.70;1305.60;;;;;;5031066;28;20030;-56
2022/04/17 09:20:01;;;;;;;4.18;1.90;;;384.70;1331.20;;;;;;5030848;28;20021;-57
2022/04/17 09:22:58;;;;;;;4.95;2.63;;;384.40;1305.60;;;;;;5030723;28;20026;-59
2022/04/17 09:25:43;;;;;;;6.95;2.17;;;384.50;1305.60;;;;;;4989235;28;20073;-57
2022/04/17 09:28:08;;;;;;;5.22;2.78;;;384.20;1331.20;;;;;;4989184;28;20236;-58
2022/04/17 09:30:39;;;;;;;3.47;2.50;;;359.30;1331.20;;;;;;4989324;28;20042;-56
2022/04/17 09:33:11;;;;;;;6.43;4.03;;;359.10;1356.80;;;;;;4988756;28;20062;-57
2022/04/17 09:35:37;;;;;;;4.40;3.17;;;359.20;1331.20;;;;;;4988781;28;20652;-60
2022/04/17 09:38:05;;;;;;;3.40;2.38;;;333.70;1356.80;;;;;;4989212;28;20029;-56
2022/04/17 09:40:31;;;;;;;2.88;1.70;;;359.10;1356.80;;;;;;4989072;28;20022;-55
2022/04/17 09:43:17;;;;;;;3.28;2.25;;;358.90;1356.80;;;;;;4988544;28;20037;-56
2022/04/17 09:46:05;;;;;;;2.75;1.90;;;333.70;1408.00;;;;;;4989150;28;20033;-57
2022/04/17 09:48:30;;;;;;;2.17;1.60;;;359.00;1331.20;;;;;;4987747;28;20440;-55
2022/04/17 09:50:57;;;;;;;2.85;1.48;;;358.90;1331.20;;;;;;4987291;28;20026;-56
2022/04/17 09:53:34;;;;;;;4.78;2.85;;;359.20;1331.20;;;;;;4987633;28;20057;-56
2022/04/17 09:56:11;;;;;;;2.92;1.85;;;359.30;1331.20;;;;;;4986219;28;20054;-55
2022/04/17 09:58:42;;;;;;;3.38;1.65;;;359.20;1331.20;;;;;;4987154;28;20481;-58
2022/04/17 10:01:08;;;;;;;3.67;2.45;;;359.00;1356.80;;;;;;4993221;28;20492;-57
2022/04/17 10:03:39;;;;;;;2.20;1.52;;;358.80;1356.80;;;;;;5028711;28;20417;-55
2022/04/17 10:06:06;;;;;;;3.08;1.50;;;358.80;1356.80;;;;;;5028718;28;20498;-57
2022/04/17 10:08:33;;;;;;;1.48;1.10;;;359.20;1382.40;;;;;;5028813;28;20018;-55
2022/04/17 10:11:00;;;;;;;2.95;2.03;;;359.30;1331.20;;;;;;5029173;28;20033;-57
2022/04/17 10:13:27;;;;;;;4.85;2.70;;;359.10;1331.20;;;;;;5029160;28;20135;-56
2022/04/17 10:15:58;;;;;;;3.78;2.30;;;359.00;1356.80;;;;;;5029303;28;20504;-60
2022/04/17 10:18:27;;;;;;;3.63;2.38;;;359.10;1331.20;;;;;;5029382;28;20028;-55
2022/04/17 10:20:55;;;;;;;3.63;1.88;;;358.60;1331.20;;;;;;5029302;28;20044;-57
2022/04/17 10:23:24;;;;;;;2.92;2.38;;;358.80;1356.80;;;;;;5029233;28;20537;-57
2022/04/17 10:25:52;;;;;;;4.35;2.05;;;358.90;1356.80;;;;;;5029835;28;20447;-58
2022/04/17 10:28:20;;;;;;;2.50;1.73;;;384.30;1305.60;;;;;;5029828;28;20507;-58
2022/04/17 10:31:04;;;;;;;2.28;1.70;;;384.10;1280.00;;;;;;5029037;28;20415;-60
2022/04/17 10:33:35;;;;;;;;;;;359.20;1280.00;;;;;;5030042;28;20021;-54
2022/04/17 10:36:35;;;;;;;3.72;2.50;;;358.80;1331.20;;;;;;5029855;28;19921;-58
2022/04/17 10:39:16;;;;;;;4.32;2.90;;;359.00;1305.60;;;;;;5029294;28;20025;-61
2022/04/17 10:41:42;;;;;;;4.70;2.65;;;359.30;1305.60;;;;;;5029294;28;20108;-54
2022/04/17 10:44:12;;;;;;;3.42;1.65;;;358.50;1331.20;;;;;;5027588;28;20040;-56
2022/04/17 10:46:51;;;;;;;2.80;2.03;;;333.50;1382.40;;;;;;5028203;28;20033;-54
2022/04/17 10:49:22;;;;;;;2.58;1.77;;;359.00;1356.80;;;;;;5027825;28;20391;-57
2022/04/17 10:51:56;;;;;;;3.55;2.05;;;384.00;1331.20;;;;;;5029987;28;20120;-56
2022/04/17 10:54:22;;;;;;;3.70;1.98;;;358.40;1356.80;;;;;;5029879;28;20376;-56
2022/04/17 10:56:54;;;;;;;5.93;3.03;;;333.60;1356.80;;;;;;5029796;28;20033;-56
2022/04/17 10:59:28;;;;;;;2.83;1.88;;;358.60;1331.20;;;;;;5029680;28;20429;-56
2022/04/17 11:02:07;;;;;;;2.33;1.58;;;359.30;1331.20;;;;;;5029651;28;20025;-58
2022/04/17 11:04:40;;;;;;;4.50;2.40;;;384.40;1331.20;;;;;;5029351;28;20418;-59
2022/04/17 11:07:14;;;;;;;4.25;2.55;;;384.10;1305.60;;;;;;5029734;28;20491;-55
2022/04/17 11:09:46;;;;;;;3.20;2.03;;;359.20;1305.60;;;;;;5029530;28;20460;-56
2022/04/17 11:12:17;;;;;;;3.30;2.22;;;359.30;1305.60;;;;;;5029763;28;20108;-59
2022/04/17 11:15:02;;;;;;;3.92;1.95;;;384.00;1305.60;;;;;;5029685;28;20091;-56
2022/04/17 11:17:29;;;;;;;3.35;2.15;;;359.20;1331.20;;;;;;5029915;28;20433;-56
2022/04/17 11:20:00;;;;;;;3.40;1.80;;;358.80;1331.20;;;;;;5033211;28;20464;-57
2022/04/17 11:22:31;;;;;;;3.00;1.65;;;359.20;1305.60;;;;;;5033220;28;20550;-57
2022/04/17 11:24:57;;;;;;;3.90;1.98;;;384.10;1305.60;;;;;;5032925;28;20468;-59
2022/04/17 11:27:31;;;;;;;2.92;1.75;;;384.60;1254.40;;;;;;5033189;28;20034;-56
2022/04/17 11:30:02;;;;;;;3.83;2.55;;;384.70;1280.00;;;;;;5032906;28;20101;-56
2022/04/17 11:32:29;;;;;;;8.10;5.22;;;409.60;1280.00;;;;;;5032720;28;20024;-56
2022/04/17 11:34:57;;;;;;;3.83;2.85;;;359.10;1305.60;;;;;;5032810;28;20061;-58
2022/04/17 11:37:25;;;;;;;4.53;2.30;;;384.10;1280.00;;;;;;5032961;28;20025;-56
2022/04/17 11:39:53;;;;;;;3.58;2.08;;;384.10;1305.60;;;;;;5032907;28;20033;-57
2022/04/17 11:42:19;;;;;;;4.05;2.45;;;359.30;1305.60;;;;;;5032801;28;20049;-58
2022/04/17 11:44:47;;;;;;;3.75;2.35;;;359.20;1305.60;;;;;;5032853;28;20030;-57
2022/04/17 11:47:19;;;;;;;2.70;1.77;;;358.90;1305.60;;;;;;5032782;28;20025;-58
2022/04/17 11:49:47;;;;;;;3.22;1.80;;;359.20;1331.20;;;;;;5032715;28;20035;-56
2022/04/17 11:52:18;;;;;;;3.55;2.00;;;359.30;1305.60;;;;;;5032793;28;20365;-55
2022/04/17 11:54:45;;;;;;;3.15;1.42;;;384.10;1305.60;;;;;;5032728;28;20113;-56
2022/04/17 11:57:11;;;;;;;4.03;2.63;;;384.00;1331.20;;;;;;5032810;28;20483;-56
2022/04/17 11:59:54;;;;;;;2.35;1.75;;;384.20;1305.60;;;;;;5032226;28;20033;-59
2022/04/17 12:02:21;;;;;;;2.92;1.83;;;384.30;1280.00;;;;;;5032316;28;20091;-57
2022/04/17 12:04:52;;;;;;;3.58;1.95;;;384.30;1280.00;;;;;;5032458;28;20030;-55
2022/04/17 12:07:25;;;;;;;7.13;3.47;;;384.80;1305.60;;;;;;5032418;28;20017;-56
2022/04/17 12:10:09;;;;;;;6.32;3.65;;;384.50;1254.40;;;;;;5032584;28;20104;-56
2022/04/17 12:12:35;;;;;;;4.25;2.42;;;359.20;1305.60;;;;;;5032342;28;20079;-56
2022/04/17 12:15:03;;;;;;;6.57;3.50;;;384.10;1305.60;;;;;;5032433;28;20076;-56
2022/04/17 12:17:31;;;;;;;10.05;3.88;;;384.30;1254.40;;;;;;5031953;28;20088;-59
2022/04/17 12:19:57;;;;;;;6.40;3.83;;;359.30;1254.40;;;;;;5032207;28;20413;-56
2022/04/17 12:22:22;;;;;;;13.25;5.22;;;358.70;1280.00;;;;;;5032135;28;20060;-57
2022/04/17 12:24:48;;;;;;;4.35;3.42;;;384.10;1280.00;;;;;;5031927;28;20065;-59
2022/04/17 12:27:19;;;;;;;6.00;2.83;;;384.60;1254.40;;;;;;5032302;28;20104;-59
2022/04/17 12:29:49;;;;;;;3.67;2.28;;;384.60;1254.40;;;;;;5031077;28;20026;-57
2022/04/17 12:32:22;;;;;;;21.98;8.02;;;384.40;1254.40;;;;;;5031551;28;20025;-56
2022/04/17 12:35:03;;;;;;;12.43;6.63;;;384.40;1254.40;;;;;;5031364;28;20431;-58